Time;durP1;ratioP1;P1;durP2;ratioP2;P2;SDS_P1;SDS_P2;PMS_P1;PMS_P2;Temp;Humidity;BMP_temperature;BMP_pressure;BME280_temperature;BME280_humidity;BME280_pressure;Samples;Min_cycle;Max_cycle;Signal;HPM_P1;HPM_P2
2023/07/08 00:00:27;;;;;;;3.35;2.10;;;23.20;60.80;;;;;;5052099;28;20141;-67
2023/07/08 00:02:53;;;;;;;4.82;2.53;;;23.20;60.80;;;;;;5052053;28;20041;-68
2023/07/08 00:05:19;;;;;;;2.90;1.77;;;23.20;60.90;;;;;;5051257;28;20056;-67
2023/07/08 00:07:45;;;;;;;3.63;2.28;;;23.20;60.90;;;;;;5051584;28;20055;-67
2023/07/08 00:10:13;;;;;;;4.05;2.25;;;23.20;60.90;;;;;;5050894;28;20044;-67
2023/07/08 00:12:38;;;;;;;4.72;2.22;;;23.20;60.90;;;;;;5051201;28;20044;-67
2023/07/08 00:15:05;;;;;;;5.45;2.25;;;23.20;60.90;;;;;;5049634;28;20061;-67
2023/07/08 00:17:30;;;;;;;3.40;2.20;;;23.20;61.00;;;;;;5050940;28;20048;-67
2023/07/08 00:19:56;;;;;;;2.95;1.90;;;23.20;60.90;;;;;;5052256;28;20041;-67
2023/07/08 00:22:24;;;;;;;3.95;2.20;;;23.20;61.00;;;;;;5050884;28;20136;-67
2023/07/08 00:24:50;;;;;;;3.70;2.30;;;23.20;61.00;;;;;;5051957;28;20470;-67
2023/07/08 00:27:16;;;;;;;3.33;1.92;;;23.20;61.00;;;;;;5051475;28;20560;-67
2023/07/08 00:29:42;;;;;;;3.55;1.90;;;23.20;61.00;;;;;;5051918;28;20037;-67
2023/07/08 00:32:13;;;;;;;3.53;2.05;;;23.20;61.00;;;;;;5050520;28;20604;-67
2023/07/08 00:34:39;;;;;;;4.20;2.35;;;23.20;61.60;;;;;;5052530;28;20055;-67
2023/07/08 00:37:05;;;;;;;3.95;2.47;;;23.10;60.90;;;;;;5051552;28;20462;-67
2023/07/08 00:39:32;;;;;;;3.63;2.15;;;23.10;61.00;;;;;;5052551;28;20043;-67
2023/07/08 00:42:00;;;;;;;4.15;2.40;;;23.20;61.00;;;;;;5052113;28;20045;-67
2023/07/08 00:44:26;;;;;;;3.85;1.90;;;23.20;61.00;;;;;;5050516;28;20033;-67
2023/07/08 00:47:04;;;;;;;3.67;2.00;;;23.10;61.00;;;;;;5050852;28;20454;-67
2023/07/08 00:49:53;;;;;;;3.35;2.05;;;23.10;61.00;;;;;;5034348;28;20381;-67
2023/07/08 00:52:26;;;;;;;3.63;2.17;;;23.20;61.00;;;;;;5037212;28;20393;-67
2023/07/08 00:54:56;;;;;;;3.95;2.00;;;23.20;61.10;;;;;;5051819;28;20067;-67
2023/07/08 00:57:23;;;;;;;3.65;2.00;;;23.10;61.00;;;;;;5050290;28;20116;-67
2023/07/08 00:59:57;;;;;;;3.27;1.87;;;23.20;61.10;;;;;;5050531;28;20087;-67
2023/07/08 01:02:23;;;;;;;2.40;1.80;;;23.10;61.00;;;;;;5052223;28;20048;-67
2023/07/08 01:05:07;;;;;;;3.05;2.15;;;23.10;61.10;;;;;;5051063;28;20083;-67
2023/07/08 01:07:33;;;;;;;3.78;2.00;;;23.10;61.10;;;;;;5052006;28;20090;-66
2023/07/08 01:10:06;;;;;;;3.78;2.20;;;23.10;61.10;;;;;;5017189;28;20049;-67
2023/07/08 01:12:41;;;;;;;4.20;2.00;;;23.10;61.70;;;;;;5032680;28;20045;-67
2023/07/08 01:15:07;;;;;;;3.72;2.00;;;23.10;61.10;;;;;;5035378;28;20053;-67
2023/07/08 01:17:33;;;;;;;4.80;2.35;;;23.10;61.10;;;;;;5049897;28;20037;-67
2023/07/08 01:20:06;;;;;;;3.67;2.10;;;23.10;61.10;;;;;;5051263;28;20044;-67
2023/07/08 01:22:35;;;;;;;4.55;2.20;;;23.10;61.10;;;;;;5050407;28;20037;-67
2023/07/08 01:25:03;;;;;;;3.20;1.90;;;23.10;61.10;;;;;;5053651;28;20083;-67
2023/07/08 01:27:29;;;;;;;4.35;2.05;;;23.10;61.10;;;;;;5055891;28;20029;-67
2023/07/08 01:29:55;;;;;;;2.78;2.00;;;23.10;61.10;;;;;;5037940;28;20057;-67
2023/07/08 01:32:20;;;;;;;5.25;2.30;;;23.00;61.10;;;;;;5053341;28;20461;-67
2023/07/08 01:34:59;;;;;;;3.85;2.20;;;23.10;61.10;;;;;;5055352;28;20037;-67
2023/07/08 01:37:39;;;;;;;4.00;2.13;;;23.10;61.20;;;;;;5055712;28;20548;-67
2023/07/08 01:40:15;;;;;;;2.78;1.70;;;23.10;61.20;;;;;;5051977;28;20053;-67
2023/07/08 01:42:41;;;;;;;3.67;2.20;;;23.00;61.10;;;;;;5055305;28;20086;-67
2023/07/08 01:45:17;;;;;;;3.83;2.30;;;23.00;61.20;;;;;;5055279;28;20048;-67
2023/07/08 01:47:51;;;;;;;2.90;1.77;;;23.10;61.20;;;;;;5054697;28;20064;-67
2023/07/08 01:50:16;;;;;;;3.38;2.17;;;23.00;61.20;;;;;;5037673;28;20037;-67
2023/07/08 01:52:44;;;;;;;3.03;2.08;;;23.00;61.20;;;;;;5054792;28;20051;-67
2023/07/08 01:55:10;;;;;;;3.75;1.92;;;23.00;61.20;;;;;;5035794;28;20041;-67
2023/07/08 01:57:35;;;;;;;4.25;2.08;;;23.00;61.20;;;;;;5055237;28;20037;-67
2023/07/08 02:00:01;;;;;;;3.70;2.13;;;23.00;61.30;;;;;;5054139;28;20047;-67
2023/07/08 02:02:27;;;;;;;3.10;2.05;;;23.00;61.20;;;;;;5055206;28;20036;-66
2023/07/08 02:04:52;;;;;;;2.95;1.83;;;23.00;61.20;;;;;;5054455;28;20484;-67
2023/07/08 02:07:18;;;;;;;3.22;1.88;;;23.00;61.20;;;;;;5053893;28;20067;-66
2023/07/08 02:09:43;;;;;;;3.65;2.13;;;23.00;61.30;;;;;;5054632;28;20040;-67
2023/07/08 02:12:09;;;;;;;3.40;1.92;;;23.00;61.30;;;;;;5053312;28;20049;-66
2023/07/08 02:14:34;;;;;;;3.50;2.28;;;23.00;61.20;;;;;;5054373;28;20483;-67
2023/07/08 02:17:00;;;;;;;3.08;2.00;;;23.00;61.30;;;;;;5054600;28;20041;-67
2023/07/08 02:19:27;;;;;;;3.10;2.00;;;23.00;61.30;;;;;;5053557;28;20037;-67
2023/07/08 02:21:53;;;;;;;2.78;1.90;;;23.00;61.30;;;;;;5053713;28;20056;-66
2023/07/08 02:24:18;;;;;;;3.92;2.30;;;23.00;61.30;;;;;;5053389;28;20077;-67
2023/07/08 02:26:47;;;;;;;3.00;1.80;;;23.00;61.30;;;;;;5053053;28;20548;-67
2023/07/08 02:29:12;;;;;;;3.20;1.92;;;22.90;61.30;;;;;;5054307;28;20048;-68
2023/07/08 02:31:38;;;;;;;3.30;2.10;;;22.90;61.30;;;;;;5053373;28;20045;-67
2023/07/08 02:34:04;;;;;;;3.60;1.75;;;23.00;61.30;;;;;;5053690;28;20064;-67
2023/07/08 02:36:29;;;;;;;4.03;2.17;;;22.90;61.30;;;;;;5053689;28;20099;-67
2023/07/08 02:38:55;;;;;;;3.85;2.33;;;22.90;61.30;;;;;;5052747;28;20136;-67
2023/07/08 02:41:20;;;;;;;3.20;1.90;;;22.90;61.30;;;;;;5052988;28;20061;-67
2023/07/08 02:43:46;;;;;;;3.05;2.00;;;22.90;61.30;;;;;;5053821;28;20060;-67
2023/07/08 02:46:12;;;;;;;3.70;2.05;;;23.00;61.40;;;;;;5052799;28;20127;-67
2023/07/08 02:48:37;;;;;;;4.75;2.00;;;23.00;61.40;;;;;;5054185;28;20040;-67
2023/07/08 02:51:04;;;;;;;4.07;2.45;;;22.90;61.30;;;;;;5053412;28;20476;-67
2023/07/08 02:53:30;;;;;;;3.72;2.20;;;22.90;61.30;;;;;;5054371;28;20037;-67
2023/07/08 02:55:55;;;;;;;2.88;1.90;;;22.90;61.30;;;;;;5053046;28;20416;-67
2023/07/08 02:58:21;;;;;;;2.63;1.70;;;23.00;61.40;;;;;;5054303;28;20365;-67
2023/07/08 03:01:00;;;;;;;3.25;2.08;;;22.90;61.30;;;;;;5053802;28;20037;-67
2023/07/08 03:03:29;;;;;;;3.47;1.70;;;22.90;61.30;;;;;;5053531;28;20553;-67
2023/07/08 03:05:59;;;;;;;3.45;2.00;;;23.00;61.40;;;;;;5052502;28;20102;-67
2023/07/08 03:08:25;;;;;;;4.00;2.20;;;22.90;61.40;;;;;;5054434;28;20113;-67
2023/07/08 03:10:58;;;;;;;3.03;2.08;;;22.90;61.40;;;;;;5052155;28;20049;-67
2023/07/08 03:13:24;;;;;;;3.33;1.92;;;22.90;61.40;;;;;;5053896;28;20041;-67
2023/07/08 03:15:50;;;;;;;2.78;1.85;;;22.90;61.40;;;;;;5051989;28;20393;-66
2023/07/08 03:18:16;;;;;;;3.60;2.05;;;22.90;61.40;;;;;;5053201;28;20033;-67
2023/07/08 03:20:44;;;;;;;3.40;2.10;;;22.90;61.40;;;;;;5053609;28;20128;-67
2023/07/08 03:23:10;;;;;;;3.15;1.92;;;22.90;61.50;;;;;;5053579;28;20040;-66
2023/07/08 03:25:37;;;;;;;3.35;1.98;;;22.90;61.50;;;;;;5051258;28;20132;-66
2023/07/08 03:28:05;;;;;;;4.30;1.90;;;22.90;61.40;;;;;;5051707;28;20083;-67
2023/07/08 03:30:32;;;;;;;2.95;2.05;;;22.90;61.50;;;;;;5053704;28;20123;-66
2023/07/08 03:32:57;;;;;;;3.55;1.98;;;22.80;61.40;;;;;;5052345;28;20080;-66
2023/07/08 03:35:26;;;;;;;3.10;2.10;;;22.90;61.50;;;;;;5053293;28;20083;-66
2023/07/08 03:37:52;;;;;;;3.20;2.13;;;22.80;61.40;;;;;;5053084;28;20037;-67
2023/07/08 03:40:18;;;;;;;4.10;2.05;;;22.80;61.40;;;;;;5052561;28;20485;-66
2023/07/08 03:42:43;;;;;;;4.05;2.35;;;22.80;61.40;;;;;;5050758;28;20044;-66
2023/07/08 03:45:09;;;;;;;3.30;2.28;;;22.80;61.80;;;;;;5050975;28;20131;-67
2023/07/08 03:47:35;;;;;;;3.97;2.38;;;22.80;61.40;;;;;;5050469;28;20503;-67
2023/07/08 03:50:00;;;;;;;3.83;2.22;;;22.80;61.40;;;;;;5051346;28;20044;-66
2023/07/08 03:52:26;;;;;;;3.40;2.20;;;22.80;61.50;;;;;;5052251;28;20029;-66
2023/07/08 03:54:52;;;;;;;4.05;2.20;;;22.80;61.50;;;;;;5052667;28;20372;-66
2023/07/08 03:57:20;;;;;;;4.65;2.38;;;22.80;61.50;;;;;;5052798;28;20132;-66
2023/07/08 03:59:46;;;;;;;3.47;2.33;;;22.80;61.50;;;;;;5051085;28;20048;-67
2023/07/08 04:02:12;;;;;;;3.92;2.33;;;22.80;61.50;;;;;;5045867;28;20037;-66
2023/07/08 04:04:37;;;;;;;3.50;2.50;;;22.80;61.50;;;;;;5038682;28;20041;-67
2023/07/08 04:07:04;;;;;;;4.00;2.40;;;22.80;61.50;;;;;;5030440;28;20553;-67
2023/07/08 04:09:30;;;;;;;3.95;2.47;;;22.80;61.50;;;;;;5031579;28;20099;-66
2023/07/08 04:11:55;;;;;;;3.75;2.25;;;22.80;61.50;;;;;;5038627;28;20049;-67
2023/07/08 04:14:21;;;;;;;4.15;2.40;;;22.80;61.50;;;;;;5051357;28;20488;-66
2023/07/08 04:16:57;;;;;;;3.10;2.10;;;22.80;61.50;;;;;;5051329;28;20052;-67
2023/07/08 04:19:23;;;;;;;3.58;2.38;;;22.80;61.50;;;;;;5036080;28;20048;-67
2023/07/08 04:21:48;;;;;;;3.40;2.08;;;22.80;61.50;;;;;;5051234;28;20044;-67
2023/07/08 04:24:14;;;;;;;5.30;2.60;;;22.80;61.50;;;;;;5051337;28;20044;-67
2023/07/08 04:26:40;;;;;;;4.22;2.53;;;22.80;61.40;;;;;;5052709;28;20090;-66
2023/07/08 04:29:24;;;;;;;4.18;2.33;;;22.80;61.40;;;;;;5049629;28;20661;-66
2023/07/08 04:31:49;;;;;;;6.32;2.85;;;22.80;61.40;;;;;;5052039;28;20106;-67
2023/07/08 04:34:15;;;;;;;6.18;2.67;;;22.80;61.30;;;;;;5052305;28;20559;-68
2023/07/08 04:36:41;;;;;;;4.45;2.58;;;22.80;61.30;;;;;;5050254;28;20057;-67
2023/07/08 04:39:07;;;;;;;4.47;2.90;;;22.80;61.30;;;;;;5050530;28;20212;-64
2023/07/08 04:41:34;;;;;;;6.55;3.60;;;22.80;61.30;;;;;;5051203;28;20488;-65
2023/07/08 04:44:02;;;;;;;6.70;4.07;;;22.80;61.00;;;;;;5051719;28;20041;-64
2023/07/08 04:46:37;;;;;;;8.27;5.05;;;22.80;60.00;;;;;;5052266;28;20132;-65
2023/07/08 04:49:03;;;;;;;8.63;4.70;;;22.70;58.70;;;;;;5034143;28;20037;-64
2023/07/08 04:51:29;;;;;;;9.65;4.80;;;22.60;58.30;;;;;;5051920;28;20128;-64
2023/07/08 04:53:54;;;;;;;8.55;4.45;;;22.60;57.90;;;;;;5052080;28;20510;-64
2023/07/08 04:56:20;;;;;;;8.18;4.65;;;22.50;57.60;;;;;;5050991;28;20103;-64
2023/07/08 04:58:45;;;;;;;7.22;4.32;;;22.50;57.50;;;;;;5055502;28;20044;-65
2023/07/08 05:01:11;;;;;;;6.32;4.13;;;22.50;57.40;;;;;;5055435;28;20127;-64
2023/07/08 05:03:37;;;;;;;5.85;3.92;;;22.50;57.40;;;;;;5054760;28;20045;-64
2023/07/08 05:06:02;;;;;;;6.38;4.00;;;22.40;57.30;;;;;;5055714;28;20048;-64
2023/07/08 05:08:30;;;;;;;9.70;4.07;;;22.40;57.40;;;;;;5055923;28;20120;-64
2023/07/08 05:10:56;;;;;;;6.93;4.18;;;22.40;57.40;;;;;;5054505;28;20051;-64
2023/07/08 05:13:22;;;;;;;6.70;3.63;;;22.40;57.50;;;;;;5055845;28;20041;-64
2023/07/08 05:15:48;;;;;;;6.97;4.00;;;22.40;57.50;;;;;;5055596;28;20566;-64
2023/07/08 05:18:14;;;;;;;7.38;4.10;;;22.30;57.50;;;;;;5055105;28;20048;-64
2023/07/08 05:20:40;;;;;;;6.55;4.07;;;22.30;57.60;;;;;;5056063;28;20041;-64
2023/07/08 05:23:05;;;;;;;7.53;4.32;;;22.30;57.70;;;;;;5055679;28;20083;-64
2023/07/08 05:25:32;;;;;;;7.88;4.07;;;22.30;57.70;;;;;;5054923;28;20094;-64
2023/07/08 05:27:57;;;;;;;6.10;3.90;;;22.30;57.70;;;;;;5055717;28;20060;-64
2023/07/08 05:30:23;;;;;;;9.57;3.40;;;22.30;57.90;;;;;;5056185;28;20037;-64
2023/07/08 05:32:48;;;;;;;6.72;4.20;;;22.30;57.90;;;;;;5054060;28;20445;-64
2023/07/08 05:35:14;;;;;;;5.25;3.33;;;22.30;58.00;;;;;;5055617;28;20049;-65
2023/07/08 05:37:40;;;;;;;5.90;3.70;;;22.30;58.00;;;;;;5054666;28;20060;-65
2023/07/08 05:40:07;;;;;;;7.57;3.22;;;22.30;58.00;;;;;;5054627;28;20080;-64
2023/07/08 05:42:33;;;;;;;6.55;3.67;;;22.30;58.00;;;;;;5054098;28;20041;-68
2023/07/08 05:44:59;;;;;;;6.43;3.63;;;22.30;58.10;;;;;;5051607;28;20041;-65
2023/07/08 05:47:24;;;;;;;4.47;3.15;;;22.30;58.20;;;;;;5054678;28;20048;-66
2023/07/08 05:49:50;;;;;;;6.32;3.30;;;22.30;58.20;;;;;;5054368;28;20033;-66
2023/07/08 05:52:15;;;;;;;5.43;3.22;;;22.30;58.30;;;;;;5054355;28;20484;-66
2023/07/08 05:54:41;;;;;;;5.47;3.40;;;22.40;58.40;;;;;;5055080;28;20040;-66
2023/07/08 05:57:08;;;;;;;6.25;3.15;;;22.40;58.50;;;;;;5053578;28;20063;-67
2023/07/08 05:59:34;;;;;;;5.10;3.10;;;22.40;58.50;;;;;;5054546;28;20407;-66
2023/07/08 06:02:00;;;;;;;7.43;3.50;;;22.50;58.60;;;;;;5053568;28;20048;-64
2023/07/08 06:04:26;;;;;;;5.20;3.03;;;22.50;58.60;;;;;;5055045;28;20051;-65
2023/07/08 06:06:52;;;;;;;5.63;3.25;;;22.50;58.70;;;;;;5054030;28;20411;-66
2023/07/08 06:09:20;;;;;;;5.60;3.10;;;22.50;58.70;;;;;;5054411;28;20460;-66
2023/07/08 06:11:46;;;;;;;6.65;3.22;;;22.50;58.70;;;;;;5053390;28;20132;-66
2023/07/08 06:14:11;;;;;;;5.53;3.60;;;22.60;58.90;;;;;;5053970;28;20120;-65
2023/07/08 06:16:37;;;;;;;5.63;3.17;;;22.60;59.00;;;;;;5054842;28;20381;-65
2023/07/08 06:19:03;;;;;;;5.63;3.15;;;22.60;59.00;;;;;;5041892;28;20038;-66
2023/07/08 06:21:28;;;;;;;4.68;3.03;;;22.60;59.10;;;;;;5034150;28;20096;-64
2023/07/08 06:23:54;;;;;;;6.18;2.95;;;22.60;59.00;;;;;;5034273;28;20042;-66
2023/07/08 06:26:19;;;;;;;5.40;3.00;;;22.70;59.10;;;;;;5034949;28;20077;-67
2023/07/08 06:28:45;;;;;;;7.60;3.47;;;22.70;59.00;;;;;;5033999;28;20120;-67
2023/07/08 06:31:10;;;;;;;4.72;3.10;;;22.70;59.00;;;;;;5037443;28;20044;-66
2023/07/08 06:33:36;;;;;;;4.95;3.20;;;22.70;59.10;;;;;;5051692;28;20477;-66
2023/07/08 06:36:02;;;;;;;5.95;3.03;;;22.70;59.20;;;;;;5044797;28;20037;-62
2023/07/08 06:38:27;;;;;;;6.63;3.10;;;22.70;59.20;;;;;;5051693;28;20091;-61
2023/07/08 06:40:53;;;;;;;6.72;3.00;;;22.80;59.30;;;;;;5044858;28;20045;-65
2023/07/08 06:43:18;;;;;;;5.60;3.25;;;22.70;59.10;;;;;;5033688;28;20495;-63
2023/07/08 06:45:44;;;;;;;5.80;2.70;;;22.80;59.20;;;;;;5034162;28;20049;-64
2023/07/08 06:48:10;;;;;;;5.35;3.00;;;22.80;59.10;;;;;;5032994;28;20041;-64
2023/07/08 06:50:35;;;;;;;6.50;3.17;;;22.80;59.10;;;;;;5033990;28;20045;-63
2023/07/08 06:53:01;;;;;;;8.90;3.20;;;22.80;59.10;;;;;;5033872;28;20091;-64
2023/07/08 06:55:27;;;;;;;4.53;2.90;;;22.80;59.10;;;;;;5032790;28;20472;-64
2023/07/08 06:57:52;;;;;;;5.30;2.85;;;22.80;59.10;;;;;;5031513;28;20033;-66
2023/07/08 07:00:18;;;;;;;6.18;3.22;;;22.80;59.10;;;;;;5034098;28;20091;-66
2023/07/08 07:02:44;;;;;;;5.07;3.00;;;22.80;59.20;;;;;;5031927;28;20080;-67
2023/07/08 07:05:09;;;;;;;6.35;3.22;;;22.80;59.40;;;;;;5033866;28;20052;-66
2023/07/08 07:07:35;;;;;;;6.60;3.40;;;22.80;59.50;;;;;;5033931;28;20041;-65
2023/07/08 07:10:00;;;;;;;6.95;3.28;;;22.80;59.60;;;;;;5032627;28;20033;-65
2023/07/08 07:12:26;;;;;;;8.77;3.10;;;22.80;59.60;;;;;;5033634;28;20045;-65
2023/07/08 07:14:53;;;;;;;8.15;3.83;;;22.80;59.70;;;;;;5031860;28;20103;-65
2023/07/08 07:17:22;;;;;;;6.43;3.30;;;22.90;59.70;;;;;;5032869;28;20532;-65
2023/07/08 07:19:48;;;;;;;6.93;3.20;;;22.90;59.80;;;;;;5033215;28;20110;-66
2023/07/08 07:22:14;;;;;;;5.75;3.25;;;22.90;59.80;;;;;;5032307;28;20491;-66
2023/07/08 07:24:39;;;;;;;7.35;3.08;;;22.90;59.90;;;;;;5032622;28;20046;-65
2023/07/08 07:27:05;;;;;;;5.03;2.85;;;22.90;59.80;;;;;;5032744;28;20096;-66
2023/07/08 07:29:42;;;;;;;4.70;3.30;;;22.90;59.90;;;;;;5031595;28;20128;-66
2023/07/08 07:32:08;;;;;;;8.18;3.15;;;22.90;59.90;;;;;;5030142;28;20057;-66
2023/07/08 07:34:33;;;;;;;6.57;3.47;;;22.90;59.90;;;;;;5037519;28;20579;-66
2023/07/08 07:36:59;;;;;;;4.88;2.97;;;23.00;60.00;;;;;;5052474;28;20132;-66
2023/07/08 07:39:24;;;;;;;4.90;2.97;;;22.90;59.90;;;;;;5050813;28;20491;-66
2023/07/08 07:41:50;;;;;;;7.10;3.10;;;22.90;59.80;;;;;;5051852;28;20045;-66
2023/07/08 07:44:15;;;;;;;6.85;2.97;;;22.90;59.80;;;;;;5051409;28;20447;-66
2023/07/08 07:46:41;;;;;;;4.68;2.78;;;22.90;59.80;;;;;;5052774;28;20124;-66
2023/07/08 07:49:07;;;;;;;7.30;2.85;;;23.00;59.80;;;;;;5053103;28;20053;-65
2023/07/08 07:51:32;;;;;;;4.43;2.72;;;23.00;59.80;;;;;;5052568;28;20068;-66
2023/07/08 07:53:58;;;;;;;6.40;2.63;;;23.00;59.70;;;;;;5052907;28;20037;-66
2023/07/08 07:56:23;;;;;;;6.47;3.10;;;23.00;59.70;;;;;;5052959;28;20037;-66
2023/07/08 07:58:49;;;;;;;4.65;2.70;;;23.00;59.60;;;;;;5052029;28;20044;-66
2023/07/08 08:01:15;;;;;;;5.90;2.92;;;23.00;59.60;;;;;;5051588;28;20051;-66
2023/07/08 08:03:41;;;;;;;5.18;2.92;;;23.00;59.60;;;;;;5053018;28;20041;-66
2023/07/08 08:06:07;;;;;;;5.65;2.70;;;23.00;59.60;;;;;;5050216;28;20113;-66
2023/07/08 08:08:32;;;;;;;6.22;3.20;;;23.00;59.60;;;;;;5052965;28;20049;-66
2023/07/08 08:10:58;;;;;;;4.90;2.90;;;23.10;59.70;;;;;;5050998;28;20094;-66
2023/07/08 08:13:23;;;;;;;7.25;3.22;;;23.10;59.70;;;;;;5052271;28;20487;-66
2023/07/08 08:15:55;;;;;;;4.32;2.83;;;23.00;59.60;;;;;;5048978;28;20056;-66
2023/07/08 08:18:20;;;;;;;4.25;2.72;;;23.00;59.50;;;;;;5051370;28;20098;-66
2023/07/08 08:20:46;;;;;;;7.40;3.03;;;23.10;59.50;;;;;;5051682;28;20733;-66
2023/07/08 08:23:11;;;;;;;7.00;3.22;;;23.10;59.50;;;;;;5025876;28;20140;-66
2023/07/08 08:25:37;;;;;;;3.88;2.63;;;23.00;59.50;;;;;;5050197;28;20451;-66
2023/07/08 08:28:03;;;;;;;4.45;2.75;;;23.10;59.50;;;;;;5051244;28;20076;-66
2023/07/08 08:30:29;;;;;;;5.93;2.90;;;23.10;59.60;;;;;;5051929;28;20037;-66
2023/07/08 08:32:54;;;;;;;5.15;3.13;;;23.10;59.60;;;;;;5051261;28;20518;-66
2023/07/08 08:35:20;;;;;;;5.57;3.03;;;23.10;59.60;;;;;;5050828;28;20468;-66
2023/07/08 08:37:47;;;;;;;5.47;3.30;;;23.10;59.60;;;;;;5051768;28;20879;-66
2023/07/08 08:40:15;;;;;;;5.63;2.72;;;23.10;59.60;;;;;;5051785;28;20131;-66
2023/07/08 08:42:43;;;;;;;4.65;2.90;;;23.10;59.60;;;;;;5041671;28;20044;-66
2023/07/08 08:45:11;;;;;;;5.45;2.80;;;23.10;59.70;;;;;;5052034;28;20103;-65
2023/07/08 08:47:42;;;;;;;6.63;2.63;;;23.10;59.60;;;;;;5017522;28;20049;-67
2023/07/08 08:50:29;;;;;;;4.60;2.65;;;23.20;59.60;;;;;;5033991;28;20522;-68
2023/07/08 08:52:55;;;;;;;4.57;2.78;;;23.20;59.60;;;;;;5051962;28;20072;-67
2023/07/08 08:55:22;;;;;;;5.28;2.95;;;23.20;59.70;;;;;;5033232;28;20488;-68
2023/07/08 08:57:59;;;;;;;5.10;3.25;;;23.20;59.70;;;;;;5050516;28;20044;-67
2023/07/08 09:00:44;;;;;;;5.93;3.20;;;23.20;59.70;;;;;;5050930;28;20057;-67
2023/07/08 09:03:12;;;;;;;4.45;2.55;;;23.20;59.70;;;;;;5050043;28;20041;-67
2023/07/08 09:05:38;;;;;;;5.57;2.80;;;23.20;59.70;;;;;;5017358;28;20495;-67
2023/07/08 09:08:15;;;;;;;5.40;3.05;;;23.20;59.60;;;;;;5050352;28;20587;-69
2023/07/08 09:10:47;;;;;;;7.18;2.85;;;23.20;59.70;;;;;;5033188;28;20053;-69
2023/07/08 09:13:33;;;;;;;4.38;2.70;;;23.20;59.70;;;;;;5034634;28;20433;-68
2023/07/08 09:16:17;;;;;;;4.25;2.75;;;23.20;59.80;;;;;;5050925;28;20052;-68
2023/07/08 09:18:54;;;;;;;3.97;2.78;;;23.20;59.70;;;;;;5052148;28;20044;-68
2023/07/08 09:21:21;;;;;;;5.55;2.90;;;23.20;59.70;;;;;;5050818;28;20045;-69
2023/07/08 09:23:47;;;;;;;4.70;2.65;;;23.20;59.80;;;;;;5033314;28;20389;-68
2023/07/08 09:26:16;;;;;;;4.72;2.65;;;23.20;59.80;;;;;;5033750;28;20129;-69
2023/07/08 09:28:43;;;;;;;5.57;2.75;;;23.20;59.80;;;;;;5034536;28;20048;-68
2023/07/08 09:31:16;;;;;;;5.63;2.58;;;23.20;59.90;;;;;;5049299;28;20049;-68
2023/07/08 09:33:42;;;;;;;4.93;2.90;;;23.20;60.00;;;;;;5033493;28;20067;-68
2023/07/08 09:36:18;;;;;;;5.32;3.05;;;23.30;60.00;;;;;;5051411;28;20049;-69
2023/07/08 09:38:47;;;;;;;4.80;2.70;;;23.20;60.00;;;;;;5038516;28;20053;-70
2023/07/08 09:41:13;;;;;;;4.90;2.80;;;23.20;60.10;;;;;;5045227;28;20045;-70
2023/07/08 09:43:38;;;;;;;5.28;3.22;;;23.30;60.30;;;;;;5039141;28;20042;-70
2023/07/08 09:46:04;;;;;;;6.32;3.30;;;23.30;60.40;;;;;;5044928;28;20106;-68
2023/07/08 09:48:34;;;;;;;6.78;3.10;;;23.30;60.50;;;;;;5044161;28;20131;-68
2023/07/08 09:51:00;;;;;;;7.40;3.10;;;23.30;60.80;;;;;;5041307;28;20052;-69
2023/07/08 09:53:26;;;;;;;7.68;3.40;;;23.30;61.00;;;;;;5040907;28;20041;-69
2023/07/08 09:55:52;;;;;;;7.43;3.13;;;23.30;61.20;;;;;;5042396;28;20056;-69
2023/07/08 09:58:23;;;;;;;5.25;3.13;;;23.40;61.40;;;;;;5044738;28;20124;-69
2023/07/08 10:00:55;;;;;;;5.85;3.22;;;23.40;61.60;;;;;;5023751;28;20092;-68
2023/07/08 10:03:28;;;;;;;4.97;3.33;;;23.40;61.80;;;;;;5043443;28;20075;-68
2023/07/08 10:05:57;;;;;;;6.45;2.92;;;23.40;61.80;;;;;;5038384;28;20045;-70
2023/07/08 10:08:23;;;;;;;7.85;3.55;;;23.50;61.90;;;;;;5034010;28;20033;-71
2023/07/08 10:11:04;;;;;;;5.90;3.30;;;23.50;61.90;;;;;;5044984;28;20049;-70
2023/07/08 10:13:41;;;;;;;4.55;3.00;;;23.50;61.90;;;;;;5024920;28;20056;-70
2023/07/08 10:16:15;;;;;;;6.33;3.13;;;23.50;61.90;;;;;;5046555;28;20515;-71
2023/07/08 10:18:41;;;;;;;5.15;2.90;;;23.50;61.90;;;;;;5050003;28;20037;-70
2023/07/08 10:21:33;;;;;;;5.80;3.17;;;23.50;61.90;;;;;;5041347;28;20057;-70
2023/07/08 10:24:25;;;;;;;5.07;3.17;;;23.50;61.90;;;;;;5039847;28;20107;-71
2023/07/08 10:26:57;;;;;;;4.93;2.88;;;23.50;61.90;;;;;;5013642;28;20091;-70
2023/07/08 10:29:44;;;;;;;5.53;3.10;;;23.50;61.90;;;;;;5033899;28;20045;-70
2023/07/08 10:32:27;;;;;;;5.82;3.50;;;23.50;61.90;;;;;;5038434;28;20349;-69
2023/07/08 10:35:12;;;;;;;6.30;3.20;;;23.60;61.90;;;;;;5031281;28;20053;-67
2023/07/08 10:38:25;;;;;;;5.57;2.90;;;23.50;61.80;;;;;;5033961;28;20047;-68
2023/07/08 10:40:55;;;;;;;5.07;2.65;;;23.60;61.70;;;;;;4945657;28;20511;-68
2023/07/08 10:43:40;;;;;;;4.50;2.85;;;23.60;61.60;;;;;;5034652;28;20064;-68
2023/07/08 10:46:35;;;;;;;8.05;3.08;;;23.60;61.60;;;;;;5052294;28;20084;-68
2023/07/08 10:49:28;;;;;;;5.72;2.88;;;23.70;61.90;;;;;;4965038;28;20050;-68
2023/07/08 10:52:00;;;;;;;5.43;3.08;;;23.70;61.70;;;;;;5052009;28;20037;-69
2023/07/08 10:54:32;;;;;;;5.40;2.88;;;23.60;61.60;;;;;;5051753;28;20047;-70
2023/07/08 10:57:31;;;;;;;3.95;2.88;;;23.70;61.60;;;;;;5051663;28;20045;-66
2023/07/08 11:00:24;;;;;;;7.43;3.20;;;23.70;61.70;;;;;;5053201;28;20044;-69
2023/07/08 11:03:08;;;;;;;8.95;4.03;;;23.70;61.70;;;;;;5051578;28;20056;-70
2023/07/08 11:05:50;;;;;;;5.00;3.20;;;23.70;61.20;;;;;;5041853;28;20410;-69
2023/07/08 11:08:21;;;;;;;5.22;2.70;;;23.70;61.40;;;;;;5051316;28;20049;-69
2023/07/08 11:11:08;;;;;;;5.32;3.10;;;23.70;61.30;;;;;;5049260;28;20131;-69
2023/07/08 11:13:36;;;;;;;8.00;4.05;;;23.70;61.40;;;;;;5015148;28;20053;-69
2023/07/08 11:16:04;;;;;;;10.60;4.80;;;23.70;61.50;;;;;;5031082;28;20446;-68
2023/07/08 11:18:40;;;;;;;13.38;4.82;;;23.70;61.50;;;;;;5032238;28;20081;-64
2023/07/08 11:21:23;;;;;;;12.85;4.97;;;23.70;61.60;;;;;;5042096;28;20048;-64
2023/07/08 11:24:16;;;;;;;9.75;4.65;;;23.70;61.50;;;;;;5051333;28;20052;-64
2023/07/08 11:26:53;;;;;;;12.75;4.82;;;23.70;61.60;;;;;;5053123;28;20041;-64
2023/07/08 11:29:26;;;;;;;15.50;5.33;;;23.70;61.70;;;;;;5030982;28;20463;-64
2023/07/08 11:31:52;;;;;;;11.50;5.25;;;23.70;61.60;;;;;;5039527;28;20037;-65
2023/07/08 11:34:17;;;;;;;10.25;4.65;;;23.70;61.60;;;;;;5046874;28;20060;-64
2023/07/08 11:36:43;;;;;;;11.05;5.15;;;23.70;61.70;;;;;;5042474;28;20867;-64
2023/07/08 11:39:32;;;;;;;15.25;5.18;;;23.70;61.80;;;;;;5019585;28;20045;-64
2023/07/08 11:42:30;;;;;;;9.43;4.90;;;23.80;61.80;;;;;;5030977;28;20055;-65
2023/07/08 11:44:56;;;;;;;10.75;4.82;;;23.80;61.90;;;;;;5008817;28;20063;-62
2023/07/08 11:47:26;;;;;;;11.35;4.45;;;23.80;61.90;;;;;;5049490;28;20051;-63
2023/07/08 11:49:52;;;;;;;12.10;4.85;;;23.80;61.90;;;;;;5052107;28;20127;-62
2023/07/08 11:52:19;;;;;;;10.15;4.88;;;23.80;61.90;;;;;;5048473;28;20120;-63
2023/07/08 11:54:49;;;;;;;12.35;4.88;;;23.90;61.90;;;;;;5048119;28;20041;-63
2023/07/08 11:57:23;;;;;;;9.85;5.20;;;23.80;61.90;;;;;;5048574;28;20526;-62
2023/07/08 12:00:06;;;;;;;11.05;5.25;;;23.90;62.00;;;;;;5049675;28;20505;-63
2023/07/08 12:02:31;;;;;;;13.40;5.18;;;23.90;62.00;;;;;;5051233;28;20041;-63
2023/07/08 12:05:13;;;;;;;8.82;4.22;;;23.90;62.00;;;;;;5049562;28;20033;-63
2023/07/08 12:07:50;;;;;;;9.82;4.60;;;23.90;62.00;;;;;;5050491;28;20036;-63
2023/07/08 12:10:38;;;;;;;10.05;4.30;;;23.90;62.00;;;;;;5048834;28;20445;-63
2023/07/08 12:13:05;;;;;;;8.68;4.15;;;23.90;62.00;;;;;;5050969;28;20068;-62
2023/07/08 12:15:31;;;;;;;9.97;4.70;;;23.90;62.00;;;;;;5041199;28;20049;-62
2023/07/08 12:18:20;;;;;;;9.15;4.70;;;23.90;62.70;;;;;;5051539;28;20056;-63
2023/07/08 12:20:48;;;;;;;11.82;4.70;;;23.90;62.10;;;;;;5035180;28;20052;-64
2023/07/08 12:23:17;;;;;;;11.20;5.10;;;23.90;62.10;;;;;;5042505;28;20400;-64
2023/07/08 12:25:42;;;;;;;9.55;4.40;;;23.90;62.00;;;;;;5047557;28;20033;-64
2023/07/08 12:28:09;;;;;;;9.07;4.25;;;23.90;62.70;;;;;;5032147;28;20498;-64
2023/07/08 12:30:35;;;;;;;7.90;4.15;;;24.00;62.20;;;;;;5032123;28;20045;-64
2023/07/08 12:33:01;;;;;;;6.35;3.65;;;24.00;62.20;;;;;;5030837;28;20374;-63
2023/07/08 12:35:27;;;;;;;8.55;4.00;;;24.00;62.20;;;;;;5032971;28;20413;-64
2023/07/08 12:37:56;;;;;;;9.07;4.60;;;24.00;62.10;;;;;;5050685;28;20048;-65
2023/07/08 12:40:22;;;;;;;11.77;4.35;;;24.00;62.20;;;;;;5051293;28;20136;-64
2023/07/08 12:42:47;;;;;;;9.13;4.45;;;24.00;62.20;;;;;;5046361;28;20125;-68
2023/07/08 12:45:18;;;;;;;7.60;4.20;;;24.00;62.20;;;;;;5033123;28;20072;-64
2023/07/08 12:47:44;;;;;;;6.85;4.10;;;24.00;62.10;;;;;;5051454;28;20051;-64
2023/07/08 12:50:10;;;;;;;10.05;4.40;;;24.00;62.10;;;;;;5051944;28;20037;-65
2023/07/08 12:52:36;;;;;;;10.07;4.32;;;24.00;62.20;;;;;;5051314;28;20033;-66
2023/07/08 12:55:01;;;;;;;8.75;4.00;;;24.00;62.20;;;;;;5050935;28;20483;-65